createdAt,value
2018-08-07T00:00:34.118Z,22.89
2018-08-07T00:01:37.621Z,22.48
2018-08-07T00:02:40.565Z,22.56
2018-08-07T00:03:43.787Z,22.46
2018-08-07T00:04:46.729Z,22.35
2018-08-07T00:05:49.590Z,22.53
2018-08-07T00:06:52.442Z,22.49
2018-08-07T00:07:55.305Z,22.56
2018-08-07T00:09:01.657Z,22.73
2018-08-07T00:10:04.932Z,22.87
2018-08-07T00:11:08.620Z,22.93
2018-08-07T00:12:11.487Z,22.93
2018-08-07T00:13:14.371Z,22.81
2018-08-07T00:14:20.206Z,22.87
2018-08-07T00:15:23.035Z,22.99
2018-08-07T00:16:26.667Z,23.02
2018-08-07T00:17:29.499Z,22.84
2018-08-07T00:18:32.351Z,22.82
2018-08-07T00:19:35.262Z,22.78
2018-08-07T00:20:38.101Z,22.78
2018-08-07T00:21:40.969Z,22.53
2018-08-07T00:22:45.468Z,22.39
2018-08-07T00:23:49.101Z,22.38
2018-08-07T00:24:51.951Z,22.46
2018-08-07T00:25:55.819Z,22.83
2018-08-07T00:26:58.744Z,22.89
2018-08-07T00:28:01.559Z,22.91
2018-08-07T00:29:04.923Z,22.52
2018-08-07T00:30:07.780Z,22.46
2018-08-07T00:31:10.667Z,22.60
2018-08-07T00:32:13.546Z,22.67
2018-08-07T00:33:16.395Z,22.76
2018-08-07T00:34:19.252Z,22.70
2018-08-07T00:35:22.515Z,22.47
2018-08-07T00:36:26.232Z,22.48
2018-08-07T00:37:29.039Z,22.64
2018-08-07T00:38:31.854Z,22.77
2018-08-07T00:39:34.785Z,22.87
2018-08-07T00:40:37.603Z,22.75
2018-08-07T00:41:40.809Z,22.74
2018-08-07T00:42:45.338Z,22.72
2018-08-07T00:43:48.232Z,22.78
2018-08-07T00:44:51.055Z,22.84
2018-08-07T00:45:53.958Z,22.86
2018-08-07T00:46:56.807Z,22.78
2018-08-07T00:48:01.251Z,22.80
2018-08-07T00:49:04.655Z,22.81
2018-08-07T00:50:07.561Z,22.87
2018-08-07T00:51:10.419Z,22.92
2018-08-07T00:52:13.249Z,22.90
2018-08-07T00:53:16.087Z,22.77
2018-08-07T00:54:19.364Z,22.76
2018-08-07T00:55:23.303Z,22.75
2018-08-07T00:56:26.134Z,22.72
2018-08-07T00:57:29.010Z,22.61
2018-08-07T00:58:31.880Z,22.60
2018-08-07T00:59:34.734Z,22.61
2018-08-07T01:00:38.492Z,22.64
2018-08-07T01:01:41.309Z,22.53
2018-08-07T01:02:44.155Z,22.27
2018-08-07T01:03:47.959Z,22.05
2018-08-07T01:04:50.837Z,21.83
2018-08-07T01:05:53.695Z,21.90
2018-08-07T01:06:56.545Z,21.91
2018-08-07T01:07:59.427Z,21.93
2018-08-07T01:09:02.303Z,21.88
2018-08-07T01:10:05.208Z,21.88
2018-08-07T01:11:08.054Z,21.91
2018-08-07T01:12:10.934Z,21.92
2018-08-07T01:13:14.236Z,21.98
2018-08-07T01:14:17.122Z,22.05
2018-08-07T01:15:20.047Z,21.73
2018-08-07T01:16:22.860Z,21.81
2018-08-07T01:17:25.826Z,21.94
2018-08-07T01:18:29.590Z,22.14
2018-08-07T01:19:32.958Z,22.12
2018-08-07T01:20:35.789Z,22.20
2018-08-07T01:21:38.662Z,22.28
2018-08-07T01:22:42.084Z,22.33
2018-08-07T01:23:44.918Z,22.22
2018-08-07T01:24:47.747Z,22.00
2018-08-07T01:25:51.245Z,21.95
2018-08-07T01:26:54.076Z,21.99
2018-08-07T01:27:56.978Z,22.07
2018-08-07T01:28:59.840Z,22.19
2018-08-07T01:30:02.696Z,22.21
2018-08-07T01:31:05.516Z,22.04
2018-08-07T01:32:08.791Z,22.04
2018-08-07T01:33:11.639Z,22.07
2018-08-07T01:34:14.498Z,22.10
2018-08-07T01:35:17.310Z,22.16
2018-08-07T01:36:20.221Z,22.02
2018-08-07T01:37:23.044Z,21.80
2018-08-07T01:38:26.268Z,21.73
2018-08-07T01:39:29.121Z,21.75
2018-08-07T01:40:31.942Z,21.81
2018-08-07T01:41:34.792Z,21.86
2018-08-07T01:42:37.628Z,21.71
2018-08-07T01:43:40.467Z,21.68
2018-08-07T01:44:43.718Z,21.51
2018-08-07T01:45:46.556Z,21.49
2018-08-07T01:46:49.398Z,21.56
2018-08-07T01:47:52.284Z,21.34
2018-08-07T01:48:55.159Z,21.26
2018-08-07T01:49:57.985Z,21.33
2018-08-07T01:51:01.573Z,21.37
2018-08-07T01:52:04.414Z,21.44
2018-08-07T01:53:07.259Z,21.52
2018-08-07T01:54:10.088Z,21.55
2018-08-07T01:55:12.949Z,21.63
2018-08-07T01:56:15.787Z,21.75
2018-08-07T01:57:18.989Z,21.69
2018-08-07T01:58:21.866Z,21.71
2018-08-07T01:59:25.062Z,21.74
2018-08-07T02:00:27.919Z,21.74
2018-08-07T02:01:30.790Z,21.63
2018-08-07T02:02:33.648Z,21.44
2018-08-07T02:03:36.856Z,21.44
2018-08-07T02:04:39.718Z,21.40
2018-08-07T02:05:42.589Z,21.25
2018-08-07T02:06:45.437Z,21.15
2018-08-07T02:07:48.251Z,20.98
2018-08-07T02:08:51.115Z,20.76
2018-08-07T02:09:54.299Z,20.60
2018-08-07T02:10:57.137Z,20.30
2018-08-07T02:11:59.974Z,20.40
2018-08-07T02:13:02.921Z,20.64
2018-08-07T02:14:06.066Z,20.89
2018-08-07T02:15:10.391Z,20.95
2018-08-07T02:16:13.594Z,20.97
2018-08-07T02:17:16.418Z,21.12
2018-08-07T02:18:19.231Z,21.20
2018-08-07T02:19:22.108Z,21.15
2018-08-07T02:20:24.940Z,21.03
2018-08-07T02:21:27.837Z,21.06
2018-08-07T02:22:31.066Z,21.23
2018-08-07T02:23:34.654Z,21.15
2018-08-07T02:24:37.538Z,20.96
2018-08-07T02:25:40.385Z,20.74
2018-08-07T02:26:43.260Z,20.54
2018-08-07T02:27:46.527Z,20.70
2018-08-07T02:28:49.751Z,20.71
2018-08-07T02:29:52.628Z,20.75
2018-08-07T02:30:55.448Z,20.69
2018-08-07T02:31:58.379Z,20.68
2018-08-07T02:33:01.203Z,20.50
2018-08-07T02:34:04.049Z,20.27
2018-08-07T02:35:07.631Z,20.51
2018-08-07T02:36:10.486Z,20.56
2018-08-07T02:37:14.157Z,20.54
2018-08-07T02:38:17.068Z,20.65
2018-08-07T02:39:19.898Z,20.76
2018-08-07T02:40:22.743Z,20.93
2018-08-07T02:41:26.078Z,21.04
2018-08-07T02:42:28.949Z,20.93
2018-08-07T02:43:31.853Z,20.89
2018-08-07T02:44:34.685Z,20.91
2018-08-07T02:45:37.527Z,20.66
2018-08-07T02:46:40.367Z,20.54
2018-08-07T02:47:44.339Z,20.47
2018-08-07T02:48:47.207Z,20.32
2018-08-07T02:49:50.066Z,20.33
2018-08-07T02:50:52.926Z,20.35
2018-08-07T02:51:55.789Z,20.40
2018-08-07T02:52:58.632Z,20.51
2018-08-07T02:54:02.009Z,20.53
2018-08-07T02:55:04.858Z,20.61
2018-08-07T02:56:07.681Z,20.54
2018-08-07T02:57:10.494Z,20.46
2018-08-07T02:58:13.327Z,20.43
2018-08-07T02:59:16.198Z,20.27
2018-08-07T03:00:20.617Z,20.15
2018-08-07T03:01:23.452Z,20.15
2018-08-07T03:02:26.305Z,20.19
2018-08-07T03:03:29.160Z,20.29
2018-08-07T03:04:32.017Z,20.08
2018-08-07T03:05:34.907Z,20.13
2018-08-07T03:06:38.101Z,20.40
2018-08-07T03:07:40.949Z,20.60
2018-08-07T03:08:43.786Z,20.59
2018-08-07T03:09:46.594Z,20.28
2018-08-07T03:10:49.472Z,20.22
2018-08-07T03:11:52.305Z,20.21
2018-08-07T03:12:55.610Z,20.02
2018-08-07T03:13:58.448Z,20.06
2018-08-07T03:15:02.445Z,20.00
2018-08-07T03:16:05.290Z,20.17
2018-08-07T03:17:08.120Z,20.36
2018-08-07T03:18:10.941Z,20.36
2018-08-07T03:19:14.111Z,20.24
2018-08-07T03:20:17.236Z,20.24
2018-08-07T03:21:20.326Z,20.16
2018-08-07T03:22:23.174Z,20.29
2018-08-07T03:23:26.037Z,20.28
2018-08-07T03:24:28.902Z,19.96
2018-08-07T03:25:32.167Z,19.99
2018-08-07T03:26:35.010Z,19.87
2018-08-07T03:27:37.899Z,19.68
2018-08-07T03:28:41.099Z,19.66
2018-08-07T03:29:44.502Z,19.61
2018-08-07T03:30:47.637Z,19.67
2018-08-07T03:31:50.858Z,19.97
2018-08-07T03:32:53.721Z,20.06
2018-08-07T03:33:56.582Z,20.08
2018-08-07T03:34:59.397Z,20.15
2018-08-07T03:36:02.320Z,20.08
2018-08-07T03:37:05.143Z,19.99
2018-08-07T03:38:08.464Z,19.92
2018-08-07T03:39:13.424Z,19.76
2018-08-07T03:40:17.369Z,19.83
2018-08-07T03:41:20.198Z,19.96
2018-08-07T03:42:23.134Z,20.10
2018-08-07T03:43:25.962Z,20.04
2018-08-07T03:44:29.193Z,19.98
2018-08-07T03:45:32.056Z,19.87
2018-08-07T03:46:34.901Z,19.89
2018-08-07T03:47:37.809Z,19.92
2018-08-07T03:48:40.645Z,20.07
2018-08-07T03:49:43.470Z,20.12
2018-08-07T03:50:46.653Z,20.10
2018-08-07T03:51:49.499Z,19.93
2018-08-07T03:52:52.322Z,19.86
2018-08-07T03:53:55.181Z,19.56
2018-08-07T03:54:57.996Z,19.56
2018-08-07T03:56:01.830Z,19.71
2018-08-07T03:57:04.710Z,19.93
2018-08-07T03:58:07.578Z,20.00
2018-08-07T03:59:10.488Z,20.08
2018-08-07T04:00:14.102Z,20.09
2018-08-07T04:01:17.715Z,19.85
2018-08-07T04:03:20.714Z,19.38
2018-08-07T04:04:23.581Z,19.39
2018-08-07T04:05:26.403Z,19.47
2018-08-07T04:06:30.362Z,19.37
2018-08-07T04:07:33.169Z,19.28
2018-08-07T04:08:36.372Z,19.11
2018-08-07T04:09:39.249Z,19.10
2018-08-07T04:10:42.114Z,18.85
2018-08-07T04:11:44.967Z,18.65
2018-08-07T04:12:47.806Z,18.68
2018-08-07T04:13:50.638Z,18.79
2018-08-07T04:14:55.007Z,18.84
2018-08-07T04:15:57.866Z,18.83
2018-08-07T04:17:00.742Z,18.98
2018-08-07T04:18:03.588Z,19.27
2018-08-07T04:19:06.486Z,19.35
2018-08-07T04:20:09.369Z,19.14
2018-08-07T04:21:12.687Z,18.94
2018-08-07T04:22:15.602Z,18.82
2018-08-07T04:23:18.426Z,18.99
2018-08-07T04:24:21.257Z,19.22
2018-08-07T04:25:24.066Z,19.39
2018-08-07T04:26:26.941Z,19.56
2018-08-07T04:27:30.083Z,19.56
2018-08-07T04:28:32.937Z,19.54
2018-08-07T04:29:35.769Z,19.28
2018-08-07T04:30:38.603Z,19.26
2018-08-07T04:31:41.443Z,19.16
2018-08-07T04:32:44.435Z,18.99
2018-08-07T04:33:47.743Z,19.20
2018-08-07T04:34:50.637Z,19.10
2018-08-07T04:35:53.533Z,18.93
2018-08-07T04:36:56.369Z,18.90
2018-08-07T04:37:59.531Z,18.87
2018-08-07T04:39:02.491Z,18.82
2018-08-07T04:40:05.799Z,18.79
2018-08-07T04:41:08.679Z,18.99
2018-08-07T04:42:11.501Z,19.25
2018-08-07T04:43:14.373Z,19.15
2018-08-07T04:44:17.228Z,19.35
2018-08-07T04:45:20.189Z,19.24
2018-08-07T04:46:23.461Z,19.32
2018-08-07T04:47:26.308Z,19.48
2018-08-07T04:48:29.119Z,19.45
2018-08-07T04:49:31.966Z,19.33
2018-08-07T04:50:34.838Z,19.40
2018-08-07T04:51:38.036Z,19.48
2018-08-07T04:52:41.709Z,19.42
2018-08-07T04:53:44.833Z,19.40
2018-08-07T04:54:47.678Z,19.46
2018-08-07T04:55:50.554Z,19.45
2018-08-07T04:56:53.399Z,19.59
2018-08-07T04:57:56.297Z,19.59
2018-08-07T04:58:59.622Z,19.66
2018-08-07T05:00:02.491Z,19.81
2018-08-07T05:01:05.332Z,19.52
2018-08-07T05:02:08.995Z,19.36
2018-08-07T05:03:11.883Z,19.04
2018-08-07T05:04:14.722Z,19.40
2018-08-07T05:05:18.279Z,19.54
2018-08-07T05:06:21.119Z,19.71
2018-08-07T05:07:23.986Z,19.82
2018-08-07T05:08:27.933Z,19.75
2018-08-07T05:09:30.793Z,19.61
2018-08-07T05:10:34.635Z,19.73
2018-08-07T05:11:37.948Z,19.75
2018-08-07T05:12:41.906Z,19.76
2018-08-07T05:13:44.777Z,19.71
2018-08-07T05:14:47.847Z,19.87
2018-08-07T05:15:50.662Z,19.67
2018-08-07T05:16:53.478Z,19.69
2018-08-07T05:17:57.583Z,19.62
2018-08-07T05:19:00.446Z,19.74
2018-08-07T05:20:03.441Z,19.78
2018-08-07T05:21:06.314Z,19.69
2018-08-07T05:22:09.149Z,19.66
2018-08-07T05:23:12.040Z,19.62
2018-08-07T05:24:15.535Z,19.62
2018-08-07T05:25:18.420Z,19.68
2018-08-07T05:26:21.305Z,19.71
2018-08-07T05:27:24.190Z,19.89
2018-08-07T05:28:27.051Z,19.99
2018-08-07T05:29:29.881Z,19.89
2018-08-07T05:33:23.663Z,20.13
2018-08-07T05:34:27.674Z,20.13
2018-08-07T05:35:30.567Z,20.29
2018-08-07T05:36:34.282Z,20.34
2018-08-07T05:37:37.213Z,20.33
2018-08-07T05:38:40.368Z,20.34
2018-08-07T05:39:46.628Z,20.37
2018-08-07T05:40:49.480Z,20.31
2018-08-07T05:41:52.332Z,20.16
2018-08-07T05:42:55.158Z,20.15
2018-08-07T05:43:57.991Z,20.28
2018-08-07T05:45:01.368Z,20.37
2018-08-07T05:46:04.212Z,20.37
2018-08-07T05:47:07.169Z,20.39
2018-08-07T05:48:10.965Z,20.38
2018-08-07T05:49:13.798Z,20.37
2018-08-07T05:50:17.805Z,20.36
2018-08-07T05:51:21.187Z,20.42
2018-08-07T05:52:23.947Z,20.43
2018-08-07T05:53:26.809Z,20.51
2018-08-07T05:54:29.704Z,20.59
2018-08-07T05:55:32.548Z,20.62
2018-08-07T05:56:35.421Z,20.64
2018-08-07T05:57:38.666Z,20.71
2018-08-07T05:58:41.544Z,20.64
2018-08-07T05:59:44.438Z,20.71
2018-08-07T06:00:47.355Z,20.83
2018-08-07T06:01:50.196Z,20.99
2018-08-07T06:02:53.053Z,21.10
2018-08-07T06:03:56.307Z,21.23
2018-08-07T06:04:59.181Z,21.51
2018-08-07T06:06:02.111Z,21.66
2018-08-07T06:07:05.015Z,21.47
2018-08-07T06:08:07.916Z,21.52
2018-08-07T06:09:11.348Z,21.67
2018-08-07T06:10:14.808Z,21.86
2018-08-07T06:11:22.400Z,21.83
2018-08-07T06:12:25.256Z,21.73
2018-08-07T06:13:31.327Z,21.66
2018-08-07T06:14:34.233Z,21.56
2018-08-07T06:15:37.584Z,21.58
2018-08-07T06:16:40.464Z,21.68
2018-08-07T06:17:44.147Z,21.83
2018-08-07T06:18:47.019Z,21.83
2018-08-07T06:19:49.898Z,21.93
2018-08-07T06:20:52.736Z,21.91
2018-08-07T06:21:56.020Z,22.24
2018-08-07T06:22:58.844Z,22.49
2018-08-07T06:24:01.692Z,22.67
2018-08-07T06:25:04.645Z,22.82
2018-08-07T06:26:08.658Z,22.78
2018-08-07T06:27:11.533Z,22.67
2018-08-07T06:28:14.867Z,22.73
2018-08-07T06:29:17.743Z,22.85
2018-08-07T06:30:21.313Z,22.90
2018-08-07T06:31:24.180Z,22.98
2018-08-07T06:32:28.457Z,23.11
2018-08-07T06:33:31.380Z,23.06
2018-08-07T06:34:34.596Z,22.92
2018-08-07T06:35:37.556Z,23.07
2018-08-07T06:36:40.453Z,23.05
2018-08-07T06:37:43.485Z,23.17
2018-08-07T06:38:46.402Z,23.38
2018-08-07T06:39:49.301Z,23.49
2018-08-07T06:40:53.578Z,23.42
2018-08-07T06:41:56.665Z,23.18
2018-08-07T06:42:59.845Z,23.44
2018-08-07T06:44:02.776Z,23.61
2018-08-07T06:45:05.804Z,23.78
2018-08-07T06:46:08.682Z,23.52
2018-08-07T06:47:12.254Z,23.57
2018-08-07T06:48:15.131Z,23.72
2018-08-07T06:49:18.997Z,23.57
2018-08-07T06:50:22.983Z,23.79
2018-08-07T06:51:25.814Z,23.61
2018-08-07T06:52:28.672Z,23.46
2018-08-07T06:53:31.867Z,23.52
2018-08-07T06:54:36.323Z,23.73
2018-08-07T06:55:39.188Z,23.77
2018-08-07T06:56:42.086Z,23.95
2018-08-07T06:57:46.268Z,24.35
2018-08-07T06:58:49.119Z,24.71
2018-08-07T06:59:54.366Z,24.96
2018-08-07T07:00:57.202Z,25.02
2018-08-07T07:02:00.250Z,25.16
2018-08-07T07:03:04.973Z,25.44
2018-08-07T07:04:07.855Z,25.69
2018-08-07T07:05:11.061Z,25.80
2018-08-07T07:06:13.943Z,25.95
2018-08-07T07:07:16.796Z,26.19
2018-08-07T07:08:19.681Z,26.28
2018-08-07T07:09:23.119Z,26.31
2018-08-07T07:10:26.052Z,26.54
2018-08-07T07:23:04.783Z,27.71
2018-08-07T07:24:07.930Z,27.70
2018-08-07T07:25:11.766Z,27.82
2018-08-07T07:26:14.615Z,28.00
2018-08-07T07:27:17.451Z,28.10
2018-08-07T07:28:20.641Z,28.09
2018-08-07T07:29:23.598Z,28.19
2018-08-07T07:30:26.519Z,28.46
2018-08-07T07:31:32.157Z,28.62
2018-08-07T07:32:35.325Z,28.28
2018-08-07T07:33:38.346Z,28.61
2018-08-07T07:34:41.745Z,28.68
2018-08-07T07:35:44.628Z,28.94
2018-08-07T07:36:47.478Z,28.84
2018-08-07T07:37:50.324Z,29.11
2018-08-07T07:38:53.794Z,29.45
2018-08-07T07:39:57.436Z,29.32
2018-08-07T07:41:00.713Z,29.44
2018-08-07T07:42:05.073Z,29.08
2018-08-07T07:44:24.916Z,29.63
2018-08-07T07:45:27.783Z,29.71
2018-08-07T07:46:30.788Z,29.92
2018-08-07T07:47:34.413Z,29.83
2018-08-07T07:48:37.225Z,29.92
2018-08-07T07:49:40.044Z,29.92
2018-08-07T07:50:42.939Z,30.01
2018-08-07T07:51:46.961Z,30.33
2018-08-07T07:52:50.908Z,30.30
2018-08-07T07:53:54.785Z,30.55
2018-08-07T07:54:57.957Z,30.48
2018-08-07T07:56:00.919Z,30.65
2018-08-07T07:57:03.836Z,30.71
2018-08-07T07:58:09.764Z,31.06
2018-08-07T07:59:12.677Z,30.79
2018-08-07T08:00:16.880Z,30.97
2018-08-07T08:01:19.787Z,30.88
2018-08-07T08:02:22.676Z,30.83
2018-08-07T08:03:25.570Z,30.93
2018-08-07T08:04:29.449Z,31.03
2018-08-07T08:05:32.399Z,31.46
2018-08-07T08:06:35.830Z,31.54
2018-08-07T08:07:39.788Z,31.35
2018-08-07T08:08:42.714Z,30.90
2018-08-07T08:09:45.633Z,31.06
2018-08-07T08:10:48.557Z,31.14
2018-08-07T08:11:51.901Z,31.19
2018-08-07T08:12:55.153Z,31.15
2018-08-07T08:13:58.659Z,31.12
2018-08-07T08:15:01.559Z,31.62
2018-08-07T08:16:04.430Z,32.11
2018-08-07T08:17:07.352Z,31.95
2018-08-07T08:18:10.271Z,32.03
2018-08-07T08:19:13.702Z,31.52
2018-08-07T08:20:18.033Z,31.22
2018-08-07T08:21:20.920Z,30.94
2018-08-07T08:22:23.795Z,30.95
2018-08-07T08:23:26.697Z,30.72
2018-08-07T08:24:29.619Z,31.03
2018-08-07T08:25:35.750Z,31.05
2018-08-07T08:26:39.845Z,31.42
2018-08-07T08:27:42.949Z,31.35
2018-08-07T08:28:46.999Z,31.07
2018-08-07T08:29:50.556Z,31.03
2018-08-07T08:30:54.247Z,31.52
2018-08-07T08:31:57.669Z,31.39
2018-08-07T08:33:02.500Z,31.31
2018-08-07T08:34:11.507Z,31.49
2018-08-07T08:35:15.543Z,31.44
2018-08-07T08:36:18.452Z,31.52
2018-08-07T08:37:21.842Z,31.81
2018-08-07T08:38:27.758Z,32.10
2018-08-07T08:39:31.515Z,32.11
2018-08-07T08:40:34.529Z,31.95
2018-08-07T08:41:38.718Z,31.85
2018-08-07T08:42:42.251Z,31.58
2018-08-07T08:43:45.425Z,31.92
2018-08-07T08:44:49.745Z,32.33
2018-08-07T08:45:52.643Z,32.28
2018-08-07T08:46:55.627Z,32.35
2018-08-07T08:47:59.460Z,32.08
2018-08-07T08:49:02.957Z,31.91
2018-08-07T08:50:07.163Z,32.39
2018-08-07T08:51:10.916Z,32.19
2018-08-07T08:52:18.292Z,31.93
2018-08-07T08:53:27.535Z,31.72
2018-08-07T08:54:33.149Z,31.77
2018-08-07T08:55:36.010Z,32.09
2018-08-07T08:56:39.512Z,32.10
2018-08-07T08:57:42.424Z,32.32
2018-08-07T08:58:45.498Z,32.75
2018-08-07T08:59:48.475Z,32.86
2018-08-07T09:00:51.482Z,32.64
2018-08-07T09:01:54.398Z,32.66
2018-08-07T09:02:59.503Z,32.79
2018-08-07T09:04:02.445Z,32.98
2018-08-07T09:05:06.619Z,32.88
2018-08-07T09:06:09.512Z,32.64
2018-08-07T09:07:12.493Z,33.31
2018-08-07T09:08:15.472Z,34.02
2018-08-07T09:09:18.933Z,34.32
2018-08-07T09:10:23.042Z,33.97
2018-08-07T09:11:26.828Z,33.95
2018-08-07T09:12:29.860Z,34.06
2018-08-07T09:13:33.024Z,34.13
2018-08-07T09:14:36.961Z,33.97
2018-08-07T09:15:40.923Z,33.77
2018-08-07T09:16:44.454Z,33.61
2018-08-07T09:17:48.566Z,33.47
2018-08-07T09:18:51.492Z,33.53
2018-08-07T09:19:54.491Z,34.23
2018-08-07T09:20:57.390Z,33.95
2018-08-07T09:22:01.342Z,34.32
2018-08-07T09:23:04.342Z,34.43
2018-08-07T09:24:07.289Z,33.44
2018-08-07T09:25:10.817Z,33.50
2018-08-07T09:26:14.020Z,33.32
2018-08-07T09:27:16.890Z,33.36
2018-08-07T09:28:21.055Z,33.57
2018-08-07T09:29:24.116Z,33.93
2018-08-07T09:30:29.749Z,34.69
2018-08-07T09:31:32.581Z,34.64
2018-08-07T09:32:35.454Z,35.03
2018-08-07T09:33:38.324Z,35.27
2018-08-07T09:34:41.725Z,34.99
2018-08-07T09:35:44.643Z,34.72
2018-08-07T09:36:47.812Z,34.60
2018-08-07T09:37:50.682Z,34.29
2018-08-07T09:38:54.839Z,33.91
2018-08-07T09:39:57.766Z,33.21
2018-08-07T09:41:01.027Z,32.82
2018-08-07T09:42:03.948Z,32.61
2018-08-07T09:43:06.852Z,32.71
2018-08-07T09:44:11.387Z,33.32
2018-08-07T09:45:15.590Z,33.88
2018-08-07T09:46:18.480Z,33.81
2018-08-07T09:47:22.715Z,34.11
2018-08-07T09:48:26.258Z,32.87
2018-08-07T09:49:29.192Z,32.90
2018-08-07T09:50:32.286Z,32.76
2018-08-07T09:51:35.183Z,32.82
2018-08-07T09:52:38.108Z,32.72
2018-08-07T09:53:41.324Z,32.47
2018-08-07T09:54:44.215Z,32.80
2018-08-07T09:55:47.122Z,32.49
2018-08-07T09:56:50.028Z,32.78
2018-08-07T09:57:52.934Z,32.88
2018-08-07T09:58:55.869Z,32.50
2018-08-07T10:00:00.001Z,33.61
2018-08-07T10:01:07.666Z,33.22
2018-08-07T10:02:15.427Z,33.68
2018-08-07T10:03:19.586Z,33.91
2018-08-07T10:04:23.403Z,34.37
2018-08-07T10:05:29.154Z,33.89
2018-08-07T10:06:33.327Z,33.82
2018-08-07T10:07:36.445Z,33.88
2018-08-07T10:08:41.348Z,34.14
2018-08-07T10:09:44.632Z,33.78
2018-08-07T10:10:48.349Z,33.48
2018-08-07T10:11:52.397Z,33.03
2018-08-07T10:12:56.326Z,33.00
2018-08-07T10:13:59.230Z,33.09
2018-08-07T10:15:02.748Z,32.95
2018-08-07T10:16:05.866Z,32.81
2018-08-07T10:17:08.736Z,33.05
2018-08-07T10:18:11.673Z,33.52
2018-08-07T10:19:20.738Z,33.36
2018-08-07T10:20:25.784Z,33.39
2018-08-07T10:21:28.762Z,33.17
2018-08-07T10:22:31.742Z,32.91
2018-08-07T10:23:34.845Z,32.86
2018-08-07T10:24:38.606Z,32.81
2018-08-07T10:25:41.879Z,32.92
2018-08-07T10:26:44.778Z,33.41
2018-08-07T10:27:48.774Z,33.67
2018-08-07T10:28:51.667Z,33.77
2018-08-07T10:29:55.500Z,33.69
2018-08-07T10:32:50.143Z,34.39
2018-08-07T10:34:02.515Z,34.58
2018-08-07T10:35:11.769Z,33.84
2018-08-07T10:36:14.592Z,33.84
2018-08-07T10:37:17.821Z,33.98
2018-08-07T10:38:20.742Z,33.79
2018-08-07T10:39:23.660Z,33.38
2018-08-07T10:40:27.938Z,33.55
2018-08-07T10:41:31.581Z,33.38
2018-08-07T10:42:35.374Z,33.46
2018-08-07T10:43:38.707Z,33.67
2018-08-07T10:44:42.372Z,33.28
2018-08-07T10:45:45.316Z,33.51
2018-08-07T10:46:49.434Z,33.36
2018-08-07T10:47:52.506Z,33.98
2018-08-07T10:48:56.189Z,34.32
2018-08-07T10:50:00.469Z,33.85
2018-08-07T10:51:04.496Z,33.80
2018-08-07T10:52:08.317Z,33.14
2018-08-07T10:53:12.079Z,32.95
2018-08-07T10:54:14.965Z,33.35
2018-08-07T10:55:18.646Z,33.44
2018-08-07T10:56:22.810Z,33.63
2018-08-07T10:57:25.761Z,33.46
2018-08-07T10:58:29.700Z,34.15
2018-08-07T10:59:32.652Z,34.04
2018-08-07T11:00:35.687Z,33.38
2018-08-07T11:01:38.647Z,33.31
2018-08-07T11:02:41.996Z,33.36
2018-08-07T11:03:47.310Z,33.27
2018-08-07T11:04:50.625Z,33.26
2018-08-07T11:05:54.224Z,33.69
2018-08-07T11:06:58.246Z,33.82
2018-08-07T11:08:01.267Z,33.68
2018-08-07T11:09:04.326Z,33.86
2018-08-07T11:10:08.276Z,33.81
2018-08-07T11:11:11.223Z,33.71
2018-08-07T11:12:14.241Z,33.98
2018-08-07T11:13:17.591Z,34.38
2018-08-07T11:14:20.828Z,34.00
2018-08-07T11:15:26.520Z,34.08
2018-08-07T11:16:31.276Z,34.20
2018-08-07T11:17:34.425Z,34.38
2018-08-07T11:18:38.951Z,33.67
2018-08-07T11:19:42.581Z,33.70
2018-08-07T11:20:47.746Z,34.21
2018-08-07T11:21:50.873Z,34.79
2018-08-07T11:22:54.846Z,35.09
2018-08-07T11:23:57.784Z,34.75
2018-08-07T11:25:01.528Z,34.56
2018-08-07T11:26:05.302Z,34.60
2018-08-07T11:27:08.890Z,33.72
2018-08-07T11:28:12.401Z,34.00
2018-08-07T11:29:15.317Z,34.14
2018-08-07T11:30:22.735Z,33.94
2018-08-07T11:31:26.500Z,33.87
2018-08-07T11:32:33.207Z,34.07
2018-08-07T11:33:36.920Z,34.17
2018-08-07T11:34:39.944Z,34.08
2018-08-07T11:35:42.834Z,34.00
2018-08-07T11:36:46.236Z,34.41
2018-08-07T11:37:49.444Z,34.68
2018-08-07T11:38:53.605Z,35.15
2018-08-07T11:39:56.485Z,35.08
2018-08-07T11:40:59.471Z,35.01
2018-08-07T11:42:03.386Z,35.19
2018-08-07T11:43:07.419Z,35.21
2018-08-07T11:44:10.787Z,34.10
2018-08-07T11:45:15.496Z,33.30
2018-08-07T11:46:19.027Z,33.80
2018-08-07T11:47:22.762Z,33.98
2018-08-07T11:48:25.731Z,33.92
2018-08-07T11:49:28.640Z,34.35
2018-08-07T11:50:32.833Z,34.56
2018-08-07T11:51:40.764Z,34.57
2018-08-07T11:52:43.864Z,34.79
2018-08-07T11:53:46.842Z,34.42
2018-08-07T11:54:49.712Z,33.99
2018-08-07T11:55:52.926Z,34.46
2018-08-07T11:56:56.067Z,34.64
2018-08-07T11:58:00.457Z,34.20
2018-08-07T11:59:06.095Z,34.49
2018-08-07T12:00:10.565Z,34.69
2018-08-07T12:01:13.524Z,35.09
2018-08-07T12:02:19.799Z,34.59
2018-08-07T12:03:24.731Z,34.48
2018-08-07T12:04:27.714Z,34.74
2018-08-07T12:05:31.319Z,35.03
2018-08-07T12:06:34.233Z,34.82
2018-08-07T12:07:37.496Z,34.79
2018-08-07T12:08:40.633Z,34.41
2018-08-07T12:09:44.603Z,34.83
2018-08-07T12:10:48.750Z,34.34
2018-08-07T12:11:51.595Z,34.96
2018-08-07T12:12:54.470Z,35.29
2018-08-07T12:13:57.844Z,35.03
2018-08-07T12:15:01.274Z,33.97
2018-08-07T12:16:05.180Z,34.30
2018-08-07T12:17:10.013Z,34.00
2018-08-07T12:18:14.578Z,34.14
2018-08-07T12:19:17.569Z,33.33
2018-08-07T12:20:20.396Z,32.96
2018-08-07T12:21:23.884Z,33.41
2018-08-07T12:22:27.156Z,33.38
2018-08-07T12:23:31.066Z,33.73
2018-08-07T12:24:34.218Z,34.17
2018-08-07T12:25:40.097Z,34.37
2018-08-07T12:26:44.482Z,34.53
2018-08-07T12:27:47.846Z,34.53
2018-08-07T12:28:50.819Z,34.37
2018-08-07T12:29:54.814Z,33.79
2018-08-07T12:30:58.132Z,33.95
2018-08-07T12:32:01.660Z,33.77
2018-08-07T12:33:06.114Z,33.86
2018-08-07T12:34:09.646Z,34.26
2018-08-07T12:35:12.647Z,34.58
2018-08-07T12:36:15.578Z,34.82
2018-08-07T12:37:19.348Z,33.96
2018-08-07T12:38:22.336Z,34.31
2018-08-07T12:39:25.980Z,33.95
2018-08-07T12:40:29.717Z,34.02
2018-08-07T12:41:32.782Z,33.95
2018-08-07T12:42:37.027Z,34.24
2018-08-07T12:43:40.782Z,34.23
2018-08-07T12:44:43.730Z,34.49
2018-08-07T12:45:46.657Z,34.67
2018-08-07T12:46:54.555Z,35.00
2018-08-07T12:47:58.148Z,35.10
2018-08-07T12:49:02.368Z,34.77
2018-08-07T12:50:05.362Z,34.50
2018-08-07T12:51:09.543Z,34.60
2018-08-07T12:52:12.545Z,34.58
2018-08-07T12:53:15.878Z,34.74
2018-08-07T12:54:19.476Z,34.56
2018-08-07T12:55:23.099Z,34.65
2018-08-07T12:56:28.076Z,34.83
2018-08-07T12:57:31.306Z,35.12
2018-08-07T12:58:34.205Z,35.14
2018-08-07T12:59:37.466Z,35.34
2018-08-07T13:00:40.536Z,34.48
2018-08-07T13:01:43.408Z,34.26
2018-08-07T13:02:46.265Z,34.38
2018-08-07T13:03:49.204Z,34.42
2018-08-07T13:04:52.715Z,34.92
2018-08-07T13:05:56.903Z,34.93
2018-08-07T13:07:00.797Z,34.86
2018-08-07T13:08:04.167Z,34.87
2018-08-07T13:09:07.054Z,34.98
2018-08-07T13:10:12.464Z,35.04
2018-08-07T13:11:17.494Z,34.88
2018-08-07T13:12:20.883Z,34.75
2018-08-07T13:13:24.402Z,34.76
2018-08-07T13:14:27.516Z,34.46
2018-08-07T13:15:30.560Z,34.82
2018-08-07T13:16:33.860Z,34.49
2018-08-07T13:17:36.765Z,34.41
2018-08-07T13:18:41.416Z,34.71
2018-08-07T13:19:45.604Z,34.73
2018-08-07T13:20:48.591Z,34.45
2018-08-07T13:21:53.314Z,35.00
2018-08-07T13:22:57.227Z,35.62
2018-08-07T13:24:00.097Z,35.37
2018-08-07T13:25:04.269Z,35.26
2018-08-07T13:26:07.289Z,35.20
2018-08-07T13:27:10.418Z,35.02
2018-08-07T13:28:17.120Z,34.68
2018-08-07T13:29:20.550Z,34.75
2018-08-07T13:30:28.451Z,34.61
2018-08-07T13:31:32.664Z,34.28
2018-08-07T13:32:48.049Z,34.62
2018-08-07T13:33:51.000Z,35.06
2018-08-07T13:34:55.816Z,34.87
2018-08-07T13:35:58.819Z,35.46
2018-08-07T13:37:02.897Z,35.50
2018-08-07T13:38:09.174Z,35.46
2018-08-07T13:39:12.361Z,35.38
2018-08-07T13:40:17.604Z,35.39
2018-08-07T13:41:21.053Z,35.23
2018-08-07T13:42:24.958Z,35.36
2018-08-07T13:43:28.493Z,35.33
2018-08-07T13:44:32.581Z,35.27
2018-08-07T13:45:36.546Z,35.53
2018-08-07T13:46:39.511Z,35.52
2018-08-07T13:47:42.472Z,35.25
2018-08-07T13:48:45.361Z,35.83
2018-08-07T13:49:48.553Z,36.24
2018-08-07T13:50:52.892Z,35.92
2018-08-07T13:51:56.661Z,35.82
2018-08-07T13:53:00.293Z,35.93
2018-08-07T13:54:04.593Z,35.71
2018-08-07T13:55:07.443Z,35.62